Portsmouth, NH (03804)

10:21 PM EDT on September 18, 2014 (GMT -0400)
Maplewood Avenue | Change Station
CLOSE
Current Station
Personal Weather Station
Location: Portsmouth, NH
Elevation: 60 ft
Nearby Weather Stations

Elev 60 ft 43.08 °N, 70.77 °W | Updated 26 seconds ago

Partly Cloudy
Partly Cloudy
55.3 °F
Feels Like 55.3 °F
N
0.0
Wind Variable Wind from NE
Gusts 0.0 mph

Today
High -- | Low -- °F
--% Chance of Precip.
Yesterday
High -- | Low -- °F
Precip. -- in
6:25 AM 6:47 PM
Waning Crescent, 23% visible
Pressure 30.12 in
Visibility 10.0 miles
Clouds Few 7000 ft
Scattered Clouds 8500 ft
Dew Point 45 °F
Humidity 68%
Rainfall 0.00 in
Snow Depth Not available.
UV 0 out of 12
Pollen 2.80 out of 12
Ozone Good
PM2.5 Good
Flu Activity Not available.
METAR KPSM 190158Z 32009KT 10SM FEW070 SCT085 13/05 A3011 RMK AO2A SLP200 T01260047

More Conditions Fewer Conditions

Pressure 30.12 in
Visibility 10.0 miles
Clouds Few 7000 ft
Scattered Clouds 8500 ft
Dew Point 45 °F
Humidity 68%
Rainfall 0.00 in
Snow Depth Not available.
UV 0 out of 12
Pollen 2.80 out of 12
Ozone Good
PM2.5 Good
Flu Activity Not available.
METAR KPSM 190158Z 32009KT 10SM FEW070 SCT085 13/05 A3011 RMK AO2A SLP200 T01260047

More Conditions Fewer Conditions

10-Day Weather Forecast

Almanac

Astronomy

Sep. 18, 2014 Rise Set
Actual Time 6:25 AM EDT 6:47 PM EDT
Civil Twilight 5:57 AM EDT 7:16 PM EDT
Nautical Twilight 5:23 AM EDT 7:49 PM EDT
Astronomical Twilight 4:49 AM EDT 8:23 PM EDT
Moon 1:08 AM EDT (9/18) 3:42 PM EDT (9/18)
Length of Visible Light 13h 18m
Length of Day
12h 21m
Tomorrow will be 2m 53s shorter.
Waning Crescent, 23% of the Moon is Illuminated
Today
Waning Crescent
Sep 24
New
Oct 1
First Quarter
Oct 8
Full
Oct 15
Last Quarter

Today's Extremes

State Highs State Lows

Community

WunderPhotos

Upload Photos

1,754,542 photos uploaded!

Nearby

Air Quality

  Air Quality AQ Index Pollutant
Yesterday Good
OZONE
Yesterday Good
PM2.5
Current Good
PM2.5
Current Good
OZONE
Thursday Good
PM2.5
Thursday Good
OZONE
Friday Good
PM2.5
Friday Good
OZONE

Snow Depth

Station Depth Elevation
No new snow has been reported.

Earthquake Activity

City Distance Mag. Time & Date
No recent earthquake activity has been reported nearby.
Minimum magnitude displayed is 2.5.

Coastal Water Temperatures

Place Temperature
Wells, ME 57.9 °F
Portland, ME 60.1 °F

Nearby Weather Stations